Time,TemperatureF,DewpointF,PressureIn,WindDirection,WindDirectionDegrees,WindSpeedMPH,WindSpeedGustMPH,Humidity,HourlyPrecipIn,Conditions,Clouds,dailyrainin,SoftwareType,DateUTC
2013-02-21 00:04:00,22.6,10.8,30.11,WNW,292,14.5,-999.0,60,-99.99,,,0.00,Acu-Link.com,2013-02-21 05:04:00,
2013-02-21 00:19:00,22.6,11.2,30.12,West,270,11.4,-999.0,61,-99.99,,,0.00,Acu-Link.com,2013-02-21 05:19:00,
2013-02-21 00:34:00,22.8,11.4,30.11,West,270,16.6,-999.0,61,-99.99,,,0.00,Acu-Link.com,2013-02-21 05:34:00,
2013-02-21 00:49:00,23.0,11.2,30.11,WNW,292,17.6,-999.0,60,-99.99,,,0.00,Acu-Link.com,2013-02-21 05:49:00,
2013-02-21 01:05:00,23.2,11.4,30.10,NW,315,16.6,-999.0,60,-99.99,,,0.00,Acu-Link.com,2013-02-21 06:05:00,
2013-02-21 01:20:00,23.2,11.0,30.09,WNW,292,18.6,-999.0,59,-99.99,,,0.00,Acu-Link.com,2013-02-21 06:20:00,
2013-02-21 01:35:00,23.2,11.0,30.09,NW,315,16.6,-999.0,59,-99.99,,,0.00,Acu-Link.com,2013-02-21 06:35:00,
2013-02-21 01:51:00,23.2,11.4,30.09,WNW,292,14.5,-999.0,60,-99.99,,,0.00,Acu-Link.com,2013-02-21 06:51:00,
2013-02-21 02:06:00,23.2,11.4,30.09,WNW,292,19.7,-999.0,60,-99.99,,,0.00,Acu-Link.com,2013-02-21 07:06:00,
2013-02-21 02:21:00,23.2,11.4,30.08,WNW,292,18.1,-999.0,60,-99.99,,,0.00,Acu-Link.com,2013-02-21 07:21:00,
2013-02-21 02:36:00,23.0,11.2,30.08,WNW,292,15.5,-999.0,60,-99.99,,,0.00,Acu-Link.com,2013-02-21 07:36:00,
2013-02-21 02:51:00,23.0,11.6,30.08,WNW,292,10.4,-999.0,61,-99.99,,,0.00,Acu-Link.com,2013-02-21 07:51:00,
2013-02-21 03:06:00,23.0,11.6,30.08,WNW,292,18.6,-999.0,61,-99.99,,,0.00,Acu-Link.com,2013-02-21 08:06:00,
2013-02-21 03:22:00,23.0,11.6,30.08,West,270,19.1,-999.0,61,-99.99,,,0.00,Acu-Link.com,2013-02-21 08:22:00,
2013-02-21 03:37:00,23.0,11.6,30.08,NW,315,11.9,-999.0,61,-99.99,,,0.00,Acu-Link.com,2013-02-21 08:37:00,
2013-02-21 03:52:00,23.0,11.2,30.07,WNW,292,13.5,-999.0,60,-99.99,,,0.00,Acu-Link.com,2013-02-21 08:52:00,
2013-02-21 04:21:00,23.0,11.6,30.08,WNW,292,10.9,-999.0,61,-99.99,,,0.00,Acu-Link.com,2013-02-21 09:21:00,
2013-02-21 04:36:00,23.0,11.6,30.08,NW,315,17.6,-999.0,61,-99.99,,,0.00,Acu-Link.com,2013-02-21 09:36:00,
2013-02-21 04:51:00,23.0,11.6,30.08,WNW,292,15.5,-999.0,61,-99.99,,,0.00,Acu-Link.com,2013-02-21 09:51:00,
2013-02-21 05:06:00,23.0,11.6,30.09,NW,315,13.0,-999.0,61,-99.99,,,0.00,Acu-Link.com,2013-02-21 10:06:00,
2013-02-21 05:21:00,23.0,11.6,30.09,WNW,292,12.5,-999.0,61,-99.99,,,0.00,Acu-Link.com,2013-02-21 10:21:00,
2013-02-21 05:36:00,23.0,11.2,30.09,NW,315,14.0,-999.0,60,-99.99,,,0.00,Acu-Link.com,2013-02-21 10:36:00,
2013-02-21 05:51:00,23.2,10.6,30.10,NW,315,15.5,-999.0,58,-99.99,,,0.00,Acu-Link.com,2013-02-21 10:51:00,
2013-02-21 06:06:00,23.2,10.6,30.09,WNW,292,17.6,-999.0,58,-99.99,,,0.00,Acu-Link.com,2013-02-21 11:06:00,
2013-02-21 06:21:00,23.2,11.0,30.10,WNW,292,17.1,-999.0,59,-99.99,,,0.00,Acu-Link.com,2013-02-21 11:21:00,
2013-02-21 06:36:00,23.2,11.0,30.10,NW,315,18.1,-999.0,59,-99.99,,,0.00,Acu-Link.com,2013-02-21 11:36:00,
2013-02-21 06:51:00,23.2,11.4,30.10,WNW,292,16.6,-999.0,60,-99.99,,,0.00,Acu-Link.com,2013-02-21 11:51:00,
2013-02-21 07:06:00,23.4,11.6,30.10,WNW,292,13.5,-999.0,60,-99.99,,,0.00,Acu-Link.com,2013-02-21 12:06:00,
2013-02-21 07:21:00,23.5,12.1,30.10,WNW,292,15.0,-999.0,61,-99.99,,,0.00,Acu-Link.com,2013-02-21 12:21:00,
2013-02-21 07:36:00,23.7,12.2,30.10,WNW,292,16.6,-999.0,61,-99.99,,,0.00,Acu-Link.com,2013-02-21 12:36:00,
2013-02-21 07:51:00,23.9,12.1,30.10,NW,315,14.5,-999.0,60,-99.99,,,0.00,Acu-Link.com,2013-02-21 12:51:00,
2013-02-21 08:06:00,24.1,12.3,30.10,NW,315,16.1,-999.0,60,-99.99,,,0.00,Acu-Link.com,2013-02-21 13:06:00,
2013-02-21 08:22:00,24.4,12.5,30.10,West,270,17.6,-999.0,60,-99.99,,,0.00,Acu-Link.com,2013-02-21 13:22:00,
2013-02-21 08:37:00,24.8,12.9,30.11,WNW,292,13.0,-999.0,60,-99.99,,,0.00,Acu-Link.com,2013-02-21 13:37:00,
2013-02-21 08:52:00,25.2,13.3,30.12,NW,315,11.9,-999.0,60,-99.99,,,0.00,Acu-Link.com,2013-02-21 13:52:00,
2013-02-21 09:07:00,25.9,13.6,30.10,NW,315,17.6,-999.0,59,-99.99,,,0.00,Acu-Link.com,2013-02-21 14:07:00,
2013-02-21 09:22:00,26.2,13.5,30.11,WNW,292,11.4,-999.0,58,-99.99,,,0.00,Acu-Link.com,2013-02-21 14:22:00,
2013-02-21 09:38:00,26.1,13.0,30.11,NW,315,19.1,-999.0,57,-99.99,,,0.00,Acu-Link.com,2013-02-21 14:38:00,
2013-02-21 09:53:00,26.8,12.8,30.12,NW,315,21.7,-999.0,55,-99.99,,,0.00,Acu-Link.com,2013-02-21 14:53:00,
2013-02-21 10:08:00,27.3,13.7,30.12,WNW,292,14.0,-999.0,56,-99.99,,,0.00,Acu-Link.com,2013-02-21 15:08:00,
2013-02-21 10:23:00,27.1,13.5,30.13,NW,315,18.6,-999.0,56,-99.99,,,0.00,Acu-Link.com,2013-02-21 15:23:00,
2013-02-21 10:38:00,27.7,13.3,30.13,West,270,15.5,-999.0,54,-99.99,,,0.00,Acu-Link.com,2013-02-21 15:38:00,
2013-02-21 10:53:00,28.2,13.7,30.12,WNW,292,17.6,-999.0,54,-99.99,,,0.00,Acu-Link.com,2013-02-21 15:53:00,
2013-02-21 11:08:00,29.7,14.3,30.12,NNE,22,14.5,-999.0,52,-99.99,,,0.00,Acu-Link.com,2013-02-21 16:08:00,
2013-02-21 11:24:00,30.6,13.7,30.11,NE,45,18.6,-999.0,49,-99.99,,,0.00,Acu-Link.com,2013-02-21 16:24:00,
2013-02-21 11:39:00,32.0,15.0,30.11,WNW,292,19.1,-999.0,49,-99.99,,,0.00,Acu-Link.com,2013-02-21 16:39:00,
2013-02-21 11:54:00,32.0,14.6,30.09,NW,315,18.1,-999.0,48,-99.99,,,0.00,Acu-Link.com,2013-02-21 16:54:00,
2013-02-21 12:09:00,31.6,14.7,30.09,West,270,15.5,-999.0,49,-99.99,,,0.00,Acu-Link.com,2013-02-21 17:09:00,
2013-02-21 12:24:00,30.2,14.7,30.09,ENE,67,13.0,-999.0,52,-99.99,,,0.00,Acu-Link.com,2013-02-21 17:24:00,
2013-02-21 12:40:00,31.3,14.8,30.10,NNW,337,10.9,-999.0,50,-99.99,,,0.00,Acu-Link.com,2013-02-21 17:40:00,
2013-02-21 12:55:00,34.0,16.9,30.09,WNW,292,15.0,-999.0,49,-99.99,,,0.00,Acu-Link.com,2013-02-21 17:55:00,
2013-02-21 13:10:00,32.9,15.9,30.07,NW,315,16.6,-999.0,49,-99.99,,,0.00,Acu-Link.com,2013-02-21 18:10:00,
2013-02-21 13:25:00,32.9,15.9,30.08,NW,315,17.6,-999.0,49,-99.99,,,0.00,Acu-Link.com,2013-02-21 18:25:00,
2013-02-21 13:40:00,32.5,16.0,30.08,WNW,292,21.7,-999.0,50,-99.99,,,0.00,Acu-Link.com,2013-02-21 18:40:00,
2013-02-21 13:55:00,34.0,16.9,30.08,WNW,292,13.5,-999.0,49,-99.99,,,0.00,Acu-Link.com,2013-02-21 18:55:00,
2013-02-21 14:10:00,33.8,16.2,30.08,NW,315,21.2,-999.0,48,-99.99,,,0.00,Acu-Link.com,2013-02-21 19:10:00,
2013-02-21 14:25:00,33.8,16.7,30.08,NW,315,21.7,-999.0,49,-99.99,,,0.00,Acu-Link.com,2013-02-21 19:25:00,
2013-02-21 14:40:00,33.3,15.8,30.08,WNW,292,18.1,-999.0,48,-99.99,,,0.00,Acu-Link.com,2013-02-21 19:40:00,
2013-02-21 14:55:00,34.9,16.7,30.08,NW,315,16.1,-999.0,47,-99.99,,,0.00,Acu-Link.com,2013-02-21 19:55:00,
2013-02-21 15:10:00,33.6,16.5,30.09,NNW,337,16.1,-999.0,49,-99.99,,,0.00,Acu-Link.com,2013-02-21 20:10:00,
2013-02-21 15:25:00,34.5,16.4,30.10,NNW,337,22.7,-999.0,47,-99.99,,,0.00,Acu-Link.com,2013-02-21 20:25:00,
2013-02-21 15:40:00,35.2,17.0,30.10,WNW,292,14.0,-999.0,47,-99.99,,,0.00,Acu-Link.com,2013-02-21 20:40:00,
2013-02-21 15:55:00,34.5,16.4,30.10,NE,45,10.4,-999.0,47,-99.99,,,0.00,Acu-Link.com,2013-02-21 20:55:00,
2013-02-21 16:10:00,34.7,16.6,30.10,WNW,292,15.5,-999.0,47,-99.99,,,0.00,Acu-Link.com,2013-02-21 21:10:00,
2013-02-21 16:26:00,35.1,16.9,30.10,NNW,337,13.5,-999.0,47,-99.99,,,0.00,Acu-Link.com,2013-02-21 21:26:00,
2013-02-21 16:41:00,34.7,16.6,30.11,WNW,292,14.0,-999.0,47,-99.99,,,0.00,Acu-Link.com,2013-02-21 21:41:00,
2013-02-21 16:56:00,34.7,17.0,30.10,NNW,337,14.5,-999.0,48,-99.99,,,0.00,Acu-Link.com,2013-02-21 21:56:00,
2013-02-21 17:11:00,35.1,16.9,30.10,WNW,292,4.2,-999.0,47,-99.99,,,0.00,Acu-Link.com,2013-02-21 22:11:00,
2013-02-21 17:26:00,33.3,16.7,30.11,NW,315,8.9,-999.0,50,-99.99,,,0.00,Acu-Link.com,2013-02-21 22:26:00,
2013-02-21 17:41:00,32.4,17.2,30.12,NW,315,7.3,-999.0,53,-99.99,,,0.00,Acu-Link.com,2013-02-21 22:41:00,
2013-02-21 17:56:00,30.4,17.4,30.15,WNW,292,5.8,-999.0,58,-99.99,,,0.00,Acu-Link.com,2013-02-21 22:56:00,
2013-02-21 18:11:00,30.6,18.0,30.16,West,270,5.8,-999.0,59,-99.99,,,0.00,Acu-Link.com,2013-02-21 23:11:00,
2013-02-21 18:26:00,30.0,17.8,30.18,WNW,292,7.3,-999.0,60,-99.99,,,0.00,Acu-Link.com,2013-02-21 23:26:00,
2013-02-21 18:41:00,30.0,17.4,30.18,NW,315,9.9,-999.0,59,-99.99,,,0.00,Acu-Link.com,2013-02-21 23:41:00,
2013-02-21 18:56:00,29.8,17.2,30.19,NW,315,7.3,-999.0,59,-99.99,,,0.00,Acu-Link.com,2013-02-21 23:56:00,
2013-02-21 19:11:00,28.9,17.5,30.20,WNW,292,7.3,-999.0,62,-99.99,,,0.00,Acu-Link.com,2013-02-22 00:11:00,
2013-02-21 19:26:00,28.4,17.8,30.21,WNW,292,6.3,-999.0,64,-99.99,,,0.00,Acu-Link.com,2013-02-22 00:26:00,
2013-02-21 19:41:00,28.8,17.4,30.21,NW,315,8.3,-999.0,62,-99.99,,,0.00,Acu-Link.com,2013-02-22 00:41:00,
2013-02-21 19:56:00,28.6,18.0,30.21,NW,315,6.8,-999.0,64,-99.99,,,0.00,Acu-Link.com,2013-02-22 00:56:00,
2013-02-21 20:11:00,27.7,17.5,30.21,NW,315,5.8,-999.0,65,-99.99,,,0.00,Acu-Link.com,2013-02-22 01:11:00,
2013-02-21 20:27:00,28.4,17.1,30.19,NNE,22,6.3,-999.0,62,-99.99,,,0.00,Acu-Link.com,2013-02-22 01:27:00,
2013-02-21 20:42:00,28.9,17.2,30.20,North,0,2.7,-999.0,61,-99.99,,,0.00,Acu-Link.com,2013-02-22 01:42:00,
2013-02-21 20:57:00,28.4,17.1,30.21,NE,45,4.2,-999.0,62,-99.99,,,0.00,Acu-Link.com,2013-02-22 01:57:00,
2013-02-21 21:13:00,28.4,16.7,30.22,NNE,22,4.7,-999.0,61,-99.99,,,0.00,Acu-Link.com,2013-02-22 02:13:00,
2013-02-21 21:28:00,29.8,16.9,30.22,NE,45,7.3,-999.0,58,-99.99,,,0.00,Acu-Link.com,2013-02-22 02:28:00,
2013-02-21 21:43:00,29.1,17.4,30.24,NNW,337,3.7,-999.0,61,-99.99,,,0.00,Acu-Link.com,2013-02-22 02:43:00,
2013-02-21 21:58:00,29.1,17.0,30.22,NE,45,6.3,-999.0,60,-99.99,,,0.00,Acu-Link.com,2013-02-22 02:58:00,
2013-02-21 22:13:00,28.6,17.3,30.24,ESE,112,3.7,-999.0,62,-99.99,,,0.00,Acu-Link.com,2013-02-22 03:13:00,
2013-02-21 22:28:00,28.4,17.1,30.23,ENE,67,5.3,-999.0,62,-99.99,,,0.00,Acu-Link.com,2013-02-22 03:28:00,
2013-02-21 22:43:00,27.9,17.0,30.23,North,0,0.0,-999.0,63,-99.99,,,0.00,Acu-Link.com,2013-02-22 03:43:00,
2013-02-21 22:59:00,27.3,16.8,30.23,NE,45,6.8,-999.0,64,-99.99,,,0.00,Acu-Link.com,2013-02-22 03:59:00,
2013-02-21 23:14:00,27.1,16.6,30.23,NNW,337,4.7,-999.0,64,-99.99,,,0.00,Acu-Link.com,2013-02-22 04:14:00,
2013-02-21 23:29:00,26.8,16.6,30.23,NNE,22,3.2,-999.0,65,-99.99,,,0.00,Acu-Link.com,2013-02-22 04:29:00,
2013-02-21 23:44:00,26.8,16.6,30.24,NNE,22,5.3,-999.0,65,-99.99,,,0.00,Acu-Link.com,2013-02-22 04:44:00,
2013-02-21 23:59:00,26.4,16.3,30.22,SE,135,2.2,-999.0,65,-99.99,,,0.00,Acu-Link.com,2013-02-22 04:59:00,